Rotterdam Express — DMRX — position and weather

sailwx.info

Track history (hours):
 
Tides and Currents Weather Stations Pressure Air Temp Water Temp Dewpoint Dewpoint Depression Visibility Wind Speed Wind Dir Waves Ship Positions

Rotterdam Express

Last reported at 2018-Jun-19 15:00 UTC. Time now 2018-Jun-20 13:31 UTC.
Position N 19°30' W 105°36'.

Length 294 m; beam 32.2 m; draft 13.6 m.

Type: Ship (hazmat cat A). MMSI: 211335760.

Wind from 250 at 3 knots

Barometer 1013.7 mb
Air temperature 27.4 ° C
Visibility: greater than 10.8 NM
Dewpoint 21.5 ° C
Water temperature 29.0 ° C

Date/timePositionNaut miles runAvg speedWind from/ knotsBaromVisibWave heightAir tempDewpointWater temp
2018-Jun-19 15:00N 19°30' W 105°36'20417.0 250 / 31013.710.8 27.421.529.0
2018-Jun-19 03:00N 21°24' W 108°36'22418.6 280 / 151012.910.8 22.719.124.0
2018-Jun-18 15:00N 23°24' W 112°00'17719.7 320 / 181015.810.8 21.916.023.0
2018-Jun-18 06:00N 25°48' W 113°54'23619.6 320 / 171014.410.8 16.914.319.0
2018-Jun-17 18:00N 29°06' W 116°18'20720.7 320 / 61016.210.8 19.612.318.0
2018-Jun-17 08:01N 32°20' W 117°39'021.0
2018-Jun-17 08:00N 32°21' W 117°39'1019.7
2018-Jun-17 07:31N 32°30' W 117°42'1019.6
2018-Jun-17 07:01N 32°39' W 117°47'1019.6
2018-Jun-17 06:30N 32°48' W 117°51'918.8
2018-Jun-17 06:01N 32°57' W 117°55'3185.7
2018-Jun-17 06:00N 32°54' W 117°54'1123.5 220 / 51012.210.8 16.710.720.0
2018-Jun-17 05:31N 33°04' W 117°59'612.6
2018-Jun-17 05:00N 33°10' W 118°02'611.9
2018-Jun-17 04:30N 33°16' W 118°05'611.6
2018-Jun-17 04:00N 33°21' W 118°07'611.8
2018-Jun-17 03:30N 33°27' W 118°09'611.7
2018-Jun-17 03:00N 33°32' W 118°12'510.8
2018-Jun-17 02:30N 33°38' W 118°12'5 9.1
2018-Jun-17 02:01N 33°42' W 118°11'3 5.7
2018-Jun-17 01:30N 33°45' W 118°13'2 3.1
2018-Jun-17 01:01N 33°46' W 118°14'0 0.1
2018-Jun-17 00:29N 33°46' W 118°14'0 0.0
2018-Jun-16 23:59N 33°46' W 118°14'0 0.0
2018-Jun-16 23:29N 33°46' W 118°14'0 0.0
2018-Jun-16 22:59N 33°46' W 118°14'0 0.0
2018-Jun-16 22:26N 33°46' W 118°14'0 0.0
2018-Jun-16 21:56N 33°46' W 118°14'0 0.0
2018-Jun-16 21:29N 33°46' W 118°14'0 0.0
2018-Jun-16 20:59N 33°46' W 118°14'0 0.0
2018-Jun-16 20:29N 33°46' W 118°14'0 0.0
2018-Jun-16 19:59N 33°46' W 118°14'0 0.0
2018-Jun-16 19:29N 33°46' W 118°14'0 0.0
2018-Jun-16 18:59N 33°46' W 118°14'0 0.0
2018-Jun-16 18:26N 33°46' W 118°14'0 0.0
2018-Jun-16 17:56N 33°46' W 118°14'0 0.0
2018-Jun-16 17:29N 33°46' W 118°14'0 0.0
2018-Jun-16 16:59N 33°46' W 118°14'0 0.0
2018-Jun-16 16:28N 33°46' W 118°14'0 0.0
2018-Jun-16 15:58N 33°46' W 118°14'0 0.0
2018-Jun-16 15:28N 33°46' W 118°14'0 0.0
2018-Jun-16 14:58N 33°46' W 118°14'0 0.0
2018-Jun-16 14:28N 33°46' W 118°14'0 0.0
2018-Jun-16 13:58N 33°46' W 118°14'0 0.0
2018-Jun-16 13:28N 33°46' W 118°14'0 0.0
2018-Jun-16 12:58N 33°46' W 118°14'0 0.0
2018-Jun-16 12:25N 33°46' W 118°14'0 0.0
2018-Jun-16 11:58N 33°46' W 118°14'0 0.0
2018-Jun-16 11:28N 33°46' W 118°14'0 0.0
2018-Jun-16 10:58N 33°46' W 118°14'0 0.0
2018-Jun-16 10:28N 33°46' W 118°14'0 0.0
2018-Jun-16 09:58N 33°46' W 118°14'0 0.0
2018-Jun-16 09:26N 33°46' W 118°14'0 0.0
2018-Jun-16 08:58N 33°46' W 118°14'0 0.0
2018-Jun-16 08:30N 33°46' W 118°14'0 0.0
2018-Jun-16 07:55N 33°46' W 118°14'0 0.0
2018-Jun-16 07:26N 33°46' W 118°14'0 0.0
2018-Jun-16 06:57N 33°46' W 118°14'0 0.0
2018-Jun-16 06:28N 33°46' W 118°14'0 0.0
2018-Jun-16 05:59N 33°46' W 118°14'0 0.0
2018-Jun-16 05:29N 33°46' W 118°14'0 0.0
2018-Jun-16 04:50N 33°46' W 118°14'0 0.0
2018-Jun-16 04:28N 33°46' W 118°14'0 0.1
2018-Jun-16 04:00N 33°46' W 118°14'1 2.5
2018-Jun-16 03:30N 33°45' W 118°13'4 7.9
2018-Jun-16 03:01N 33°42' W 118°11'4 7.6
2018-Jun-16 02:30N 33°38' W 118°10'3 5.7
2018-Jun-16 02:01N 33°36' W 118°13'4 8.6
2018-Jun-16 01:31N 33°36' W 118°18'4 8.3
2018-Jun-16 01:00N 33°37' W 118°23'4 8.6
2018-Jun-16 00:30N 33°39' W 118°27'5 8.3
2018-Jun-15 23:58N 33°41' W 118°32'4 8.2
2018-Jun-15 23:28N 33°43' W 118°36'4 7.8
2018-Jun-15 22:58N 33°45' W 118°40'6 8.2
2018-Jun-15 22:16N 33°48' W 118°46'2 8.4
2018-Jun-15 22:00N 33°49' W 118°48'4 8.2
2018-Jun-15 21:29N 33°51' W 118°53'4 7.8
2018-Jun-15 20:58N 33°53' W 118°57'4 8.0
2018-Jun-15 20:29N 33°55' W 119°01'4 8.1
2018-Jun-15 20:00N 33°57' W 119°05'4 7.7
2018-Jun-15 19:27N 33°59' W 119°10'3 7.5
2018-Jun-15 19:00N 34°01' W 119°13'4 8.4
2018-Jun-15 18:28N 34°03' W 119°18'3 6.1
2018-Jun-15 18:00N 34°00' W 119°18'7121.6 320 / 71010.7 5.4 20.714.418.0
2018-Jun-15 17:56N 34°04' W 119°24'4 9.4
2018-Jun-15 17:28N 34°06' W 119°29'4 9.2
2018-Jun-15 16:59N 34°07' W 119°34'5 9.3
2018-Jun-15 16:29N 34°08' W 119°40'6 9.5
2018-Jun-15 15:54N 34°09' W 119°46'4 9.2
2018-Jun-15 15:28N 34°10' W 119°51'5 9.2
2018-Jun-15 14:58N 34°12' W 119°56'5 9.8
2018-Jun-15 14:30N 34°13' W 120°01'5 9.3
2018-Jun-15 13:56N 34°14' W 120°08'4 9.5
2018-Jun-15 13:30N 34°15' W 120°12'5 9.7
2018-Jun-15 12:58N 34°17' W 120°19'510.0
2018-Jun-15 12:29N 34°18' W 120°24'510.5
2018-Jun-15 12:00N 34°19' W 120°30'4 8.1
2018-Jun-15 11:30N 34°20' W 120°35'5 9.3
2018-Jun-15 10:58N 34°22' W 120°41'4 9.6
2018-Jun-15 10:30N 34°23' W 120°46'5 9.5
2018-Jun-15 09:59N 34°24' W 120°52'5 9.4
2018-Jun-15 09:29N 34°28' W 120°55'5 9.5
2018-Jun-15 08:55N 34°33' W 120°59'6 9.5
2018-Jun-15 08:16N 34°38' W 121°03'3 9.7
2018-Jun-15 07:59N 34°40' W 121°05'5 9.4
2018-Jun-15 07:24N 34°45' W 121°08'4 9.5
2018-Jun-15 06:57N 34°48' W 121°11'7 9.8
2018-Jun-15 06:15N 34°54' W 121°16'311.0
2018-Jun-15 06:00N 34°54' W 121°12'5306.3 320 / 101011.4 5.4 14.111.312.0
2018-Jun-15 05:59N 34°56' W 121°17'5 9.5
2018-Jun-15 05:26N 35°01' W 121°21'4 9.1
2018-Jun-15 04:57N 35°04' W 121°24'4 9.3
2018-Jun-15 04:29N 35°08' W 121°26'5 9.7
2018-Jun-15 03:59N 35°12' W 121°30'5 9.6
2018-Jun-15 03:30N 35°16' W 121°33'5 9.7
2018-Jun-15 02:57N 35°20' W 121°36'5 9.5
2018-Jun-15 02:29N 35°24' W 121°39'5 9.6
2018-Jun-15 01:59N 35°28' W 121°42'7810.3
2018-Jun-14 18:23N 36°37' W 122°28'3 8.2
2018-Jun-14 18:00N 36°36' W 122°24'932.5 320 / 101012.910.8 13.610.612.0
2018-Jun-14 17:43N 36°43' W 122°31'210.0
2018-Jun-14 17:28N 36°45' W 122°32'510.4
2018-Jun-14 16:59N 36°50' W 122°34'5 9.9
2018-Jun-14 16:27N 36°55' W 122°36'4 9.7
2018-Jun-14 16:00N 36°59' W 122°38'5 9.5
2018-Jun-14 15:29N 37°04' W 122°40'4 9.0
2018-Jun-14 15:00N 37°08' W 122°42'4 8.8
2018-Jun-14 14:30N 37°12' W 122°43'4 8.5
2018-Jun-14 14:00N 37°16' W 122°43'4 8.7
2018-Jun-14 13:30N 37°21' W 122°44'4 8.6
2018-Jun-14 13:00N 37°25' W 122°44'4 8.6
2018-Jun-14 12:30N 37°30' W 122°44'4 8.6
2018-Jun-14 11:59N 37°34' W 122°43'4 8.8
2018-Jun-14 11:30N 37°38' W 122°43'4 8.7
2018-Jun-14 11:00N 37°42' W 122°41'4 8.2
2018-Jun-14 10:30N 37°46' W 122°39'815.9
2018-Jun-14 10:00N 37°49' W 122°30'612.3
2018-Jun-14 09:30N 37°48' W 122°22'3 5.0
2018-Jun-14 08:59N 37°48' W 122°19'0 0.0
2018-Jun-14 08:29N 37°48' W 122°19'0 0.0
2018-Jun-14 07:59N 37°48' W 122°19'0 0.0
2018-Jun-14 07:29N 37°48' W 122°19'0 0.0
2018-Jun-14 06:59N 37°48' W 122°19'0 0.0
2018-Jun-14 06:29N 37°48' W 122°19'0 0.0
2018-Jun-14 05:59N 37°48' W 122°19'0 0.0
2018-Jun-14 05:29N 37°48' W 122°19'0 0.0
2018-Jun-14 04:59N 37°48' W 122°19'0 0.0
2018-Jun-14 04:29N 37°48' W 122°19'0 0.0
2018-Jun-14 03:59N 37°48' W 122°19'0 0.0
2018-Jun-14 03:30N 37°48' W 122°19'0 0.0
2018-Jun-14 02:57N 37°48' W 122°19'0 0.0
2018-Jun-14 02:29N 37°48' W 122°19'0 0.0
2018-Jun-14 01:58N 37°48' W 122°19'0 0.0
2018-Jun-14 01:28N 37°48' W 122°19'0 0.0
2018-Jun-14 00:58N 37°48' W 122°19'0 0.0
2018-Jun-14 00:30N 37°48' W 122°19'0 0.0
2018-Jun-13 23:58N 37°48' W 122°19'0 0.0
2018-Jun-13 23:30N 37°48' W 122°19'0 0.0
2018-Jun-13 22:59N 37°48' W 122°19'0 0.0
2018-Jun-13 22:30N 37°48' W 122°19'0 0.0
2018-Jun-13 21:59N 37°48' W 122°19'0 0.0
2018-Jun-13 21:29N 37°48' W 122°19'0 0.0
2018-Jun-13 21:00N 37°48' W 122°19'0 0.0
2018-Jun-13 20:30N 37°48' W 122°19'0 0.0
2018-Jun-13 20:00N 37°48' W 122°19'0 0.0
2018-Jun-13 19:30N 37°48' W 122°19'0 0.0
2018-Jun-13 19:00N 37°48' W 122°19'0 0.0
2018-Jun-13 18:30N 37°48' W 122°19'0 0.0
2018-Jun-13 18:00N 37°48' W 122°19'0 0.0
2018-Jun-13 17:30N 37°48' W 122°19'0 0.0
2018-Jun-13 17:01N 37°48' W 122°19'0 0.0
2018-Jun-13 16:26N 37°48' W 122°19'0 0.0
2018-Jun-13 15:59N 37°48' W 122°19'0 0.0
2018-Jun-13 15:28N 37°48' W 122°19'0 0.0
2018-Jun-13 14:54N 37°48' W 122°19'0 0.0
2018-Jun-13 14:30N 37°48' W 122°19'0 0.0
2018-Jun-13 14:00N 37°48' W 122°19'0 0.0
2018-Jun-13 13:30N 37°48' W 122°19'0 0.0
2018-Jun-13 13:00N 37°48' W 122°19'0 0.0
2018-Jun-13 12:30N 37°48' W 122°19'0 0.0
2018-Jun-13 11:59N 37°48' W 122°19'0 0.0
2018-Jun-13 11:29N 37°48' W 122°19'0 0.0
2018-Jun-13 10:59N 37°48' W 122°19'0 0.0
2018-Jun-13 10:28N 37°48' W 122°19'0 0.0
2018-Jun-13 09:58N 37°48' W 122°19'0 0.0
2018-Jun-13 09:28N 37°48' W 122°19'0 0.0
2018-Jun-13 09:00N 37°48' W 122°19'0 0.0
2018-Jun-13 08:30N 37°48' W 122°19'0 0.0
2018-Jun-13 07:59N 37°48' W 122°19'0 0.0
2018-Jun-13 07:28N 37°48' W 122°19'0 0.0
2018-Jun-13 06:58N 37°48' W 122°19'0 0.0
2018-Jun-13 06:30N 37°48' W 122°19'0 0.0
2018-Jun-13 06:00N 37°48' W 122°19'0 0.0
2018-Jun-13 05:30N 37°48' W 122°19'0 0.0
2018-Jun-13 05:00N 37°48' W 122°19'0 0.0
2018-Jun-13 04:28N 37°48' W 122°19'0 0.0
2018-Jun-13 03:58N 37°48' W 122°19'0 0.0
2018-Jun-13 03:28N 37°48' W 122°19'0 0.0
2018-Jun-13 02:58N 37°48' W 122°19'0 0.0
2018-Jun-13 02:28N 37°48' W 122°19'0 0.0
2018-Jun-13 01:58N 37°48' W 122°19'0 0.0
2018-Jun-13 01:28N 37°48' W 122°19'0 0.0
2018-Jun-13 00:58N 37°48' W 122°19'0 0.0
2018-Jun-13 00:28N 37°48' W 122°19'0 0.0
2018-Jun-12 23:58N 37°48' W 122°19'0 0.0
2018-Jun-12 23:30N 37°48' W 122°19'0 0.0
2018-Jun-12 23:00N 37°48' W 122°19'0 0.0
2018-Jun-12 22:30N 37°48' W 122°19'1 2.3
2018-Jun-12 22:00N 37°48' W 122°18'1 1.1
2018-Jun-12 21:30N 37°48' W 122°18'3 6.4
2018-Jun-12 21:00N 37°48' W 122°23'611.6
2018-Jun-12 20:31N 37°49' W 122°30'815.3
2018-Jun-12 20:00N 37°46' W 122°39'5 9.8
2018-Jun-12 19:29N 37°46' W 122°45'5 9.4
2018-Jun-12 19:00N 37°48' W 122°51'5 9.2
2018-Jun-12 18:30N 37°50' W 122°55'5 9.0
2018-Jun-12 18:00N 37°53' W 123°00'5 9.2
2018-Jun-12 17:30N 37°55' W 123°05'5 9.0
2018-Jun-12 17:00N 37°57' W 123°10'5 9.1
2018-Jun-12 16:30N 38°01' W 123°14'4 9.0
2018-Jun-12 16:00N 38°04' W 123°18'4 9.1
2018-Jun-12 15:30N 38°08' W 123°22'5 9.4
2018-Jun-12 15:00N 38°12' W 123°24'510.2
2018-Jun-12 14:30N 38°16' W 123°27'510.6
2018-Jun-12 14:00N 38°21' W 123°30'510.3
2018-Jun-12 13:30N 38°26' W 123°33'510.6
2018-Jun-12 13:00N 38°30' W 123°36'510.2
2018-Jun-12 12:30N 38°35' W 123°39'1 1.4
2018-Jun-12 11:59N 38°35' W 123°40'4 7.3
2018-Jun-12 11:29N 38°39' W 123°42'5 9.5
2018-Jun-12 10:57N 38°43' W 123°45'6212.6
2018-Jun-12 06:00N 39°42' W 124°12'206 8.6 330 / 141016.710.8 13.111.012.0
2018-Jun-11 06:00N 43°06' W 124°54'12110.2 160 / 301015.8 5.4 13.210.914.0
2018-Jun-10 18:05N 45°07' W 125°04'331.4
2018-Jun-10 18:00N 45°06' W 125°00'619.1 160 / 121018.9 5.4 12.1 9.115.0
2018-Jun-10 17:41N 45°11' W 125°05'210.7
2018-Jun-10 17:30N 45°13' W 125°05'610.6
2018-Jun-10 16:57N 45°19' W 125°05'510.6
2018-Jun-10 16:31N 45°24' W 125°06'910.5
2018-Jun-10 15:40N 45°32' W 125°06'210.7
2018-Jun-10 15:30N 45°34' W 125°06'610.7
2018-Jun-10 14:59N 45°40' W 125°07'1110.9
2018-Jun-10 14:00N 45°50' W 125°08'510.9
2018-Jun-10 13:31N 45°56' W 125°08'510.8
2018-Jun-10 13:00N 46°01' W 125°09'510.6
2018-Jun-10 12:31N 46°06' W 125°09'510.4
2018-Jun-10 12:00N 46°12' W 125°10'510.8
2018-Jun-10 11:31N 46°17' W 125°10'510.8
2018-Jun-10 11:01N 46°22' W 125°10'510.9
2018-Jun-10 10:31N 46°28' W 125°11'611.1
2018-Jun-10 10:01N 46°33' W 125°11'611.2
2018-Jun-10 09:30N 46°39' W 125°12'511.3
2018-Jun-10 09:01N 46°45' W 125°12'611.4
2018-Jun-10 08:30N 46°50' W 125°13'611.5
2018-Jun-10 08:00N 46°56' W 125°13'2210.9
2018-Jun-10 06:00N 47°18' W 125°12'4311.9 240 / 121016.510.8 11.2 7.215.0
2018-Jun-10 02:21N 48°01' W 125°17'411.3
2018-Jun-10 01:58N 48°05' W 125°17'510.5
2018-Jun-10 01:30N 48°10' W 125°14'510.5
2018-Jun-10 01:00N 48°15' W 125°12'610.7
2018-Jun-10 00:29N 48°21' W 125°10'511.0
2018-Jun-10 00:00N 48°25' W 125°06'611.4
2018-Jun-09 23:30N 48°30' W 125°01'611.1
2018-Jun-09 23:00N 48°31' W 124°53'611.3
2018-Jun-09 22:30N 48°30' W 124°45'611.0
2018-Jun-09 22:00N 48°29' W 124°37'611.2
2018-Jun-09 21:30N 48°27' W 124°29'510.9
2018-Jun-09 21:00N 48°24' W 124°21'510.7
2018-Jun-09 20:30N 48°22' W 124°14'510.3
2018-Jun-09 20:00N 48°20' W 124°07'610.7
2018-Jun-09 19:27N 48°18' W 123°58'510.5
2018-Jun-09 19:00N 48°17' W 123°51'1410.3
2018-Jun-09 17:37N 48°17' W 123°30'410.3
2018-Jun-09 17:14N 48°21' W 123°27'3 9.8
2018-Jun-09 16:59N 48°22' W 123°25'611.7
2018-Jun-09 16:29N 48°23' W 123°16'816.9
2018-Jun-09 16:00N 48°31' W 123°13'  
Track history (hours):
 
Tides and Currents Weather Stations Pressure Air Temp Water Temp Dewpoint Dewpoint Depression Visibility Wind Speed Wind Dir Waves Ship Positions

Rotterdam Express

Last reported at 2018-Jun-19 15:00 UTC. Time now 2018-Jun-20 13:31 UTC.
Position N 19°30' W 105°36'.

Length 294 m; beam 32.2 m; draft 13.6 m.

Type: Ship (hazmat cat A). MMSI: 211335760.

Wind from 250 at 3 knots

Barometer 1013.7 mb
Air temperature 27.4 ° C
Visibility: greater than 10.8 NM
Dewpoint 21.5 ° C
Water temperature 29.0 ° C

Date/timePositionNaut miles runAvg speedWind from/ knotsBaromVisibWave heightAir tempDewpointWater temp
2018-Jun-19 15:00N 19°30' W 105°36'20417.0 250 / 31013.710.8 27.421.529.0
2018-Jun-19 03:00N 21°24' W 108°36'22418.6 280 / 151012.910.8 22.719.124.0
2018-Jun-18 15:00N 23°24' W 112°00'17719.7 320 / 181015.810.8 21.916.023.0
2018-Jun-18 06:00N 25°48' W 113°54'23619.6 320 / 171014.410.8 16.914.319.0
2018-Jun-17 18:00N 29°06' W 116°18'20720.7 320 / 61016.210.8 19.612.318.0
2018-Jun-17 08:01N 32°20' W 117°39'021.0
2018-Jun-17 08:00N 32°21' W 117°39'1019.7
2018-Jun-17 07:31N 32°30' W 117°42'1019.6
2018-Jun-17 07:01N 32°39' W 117°47'1019.6
2018-Jun-17 06:30N 32°48' W 117°51'918.8
2018-Jun-17 06:01N 32°57' W 117°55'3185.7
2018-Jun-17 06:00N 32°54' W 117°54'1123.5 220 / 51012.210.8 16.710.720.0
2018-Jun-17 05:31N 33°04' W 117°59'612.6
2018-Jun-17 05:00N 33°10' W 118°02'611.9
2018-Jun-17 04:30N 33°16' W 118°05'611.6
2018-Jun-17 04:00N 33°21' W 118°07'611.8
2018-Jun-17 03:30N 33°27' W 118°09'611.7
2018-Jun-17 03:00N 33°32' W 118°12'510.8
2018-Jun-17 02:30N 33°38' W 118°12'5 9.1
2018-Jun-17 02:01N 33°42' W 118°11'3 5.7
2018-Jun-17 01:30N 33°45' W 118°13'2 3.1
2018-Jun-17 01:01N 33°46' W 118°14'0 0.1
2018-Jun-17 00:29N 33°46' W 118°14'0 0.0
2018-Jun-16 23:59N 33°46' W 118°14'0 0.0
2018-Jun-16 23:29N 33°46' W 118°14'0 0.0
2018-Jun-16 22:59N 33°46' W 118°14'0 0.0
2018-Jun-16 22:26N 33°46' W 118°14'0 0.0
2018-Jun-16 21:56N 33°46' W 118°14'0 0.0
2018-Jun-16 21:29N 33°46' W 118°14'0 0.0
2018-Jun-16 20:59N 33°46' W 118°14'0 0.0
2018-Jun-16 20:29N 33°46' W 118°14'0 0.0
2018-Jun-16 19:59N 33°46' W 118°14'0 0.0
2018-Jun-16 19:29N 33°46' W 118°14'0 0.0
2018-Jun-16 18:59N 33°46' W 118°14'0 0.0
2018-Jun-16 18:26N 33°46' W 118°14'0 0.0
2018-Jun-16 17:56N 33°46' W 118°14'0 0.0
2018-Jun-16 17:29N 33°46' W 118°14'0 0.0
2018-Jun-16 16:59N 33°46' W 118°14'0 0.0
2018-Jun-16 16:28N 33°46' W 118°14'0 0.0
2018-Jun-16 15:58N 33°46' W 118°14'0 0.0
2018-Jun-16 15:28N 33°46' W 118°14'0 0.0
2018-Jun-16 14:58N 33°46' W 118°14'0 0.0
2018-Jun-16 14:28N 33°46' W 118°14'0 0.0
2018-Jun-16 13:58N 33°46' W 118°14'0 0.0
2018-Jun-16 13:28N 33°46' W 118°14'0 0.0
2018-Jun-16 12:58N 33°46' W 118°14'0 0.0
2018-Jun-16 12:25N 33°46' W 118°14'0 0.0
2018-Jun-16 11:58N 33°46' W 118°14'0 0.0
2018-Jun-16 11:28N 33°46' W 118°14'0 0.0
2018-Jun-16 10:58N 33°46' W 118°14'0 0.0
2018-Jun-16 10:28N 33°46' W 118°14'0 0.0
2018-Jun-16 09:58N 33°46' W 118°14'0 0.0
2018-Jun-16 09:26N 33°46' W 118°14'0 0.0
2018-Jun-16 08:58N 33°46' W 118°14'0 0.0
2018-Jun-16 08:30N 33°46' W 118°14'0 0.0
2018-Jun-16 07:55N 33°46' W 118°14'0 0.0
2018-Jun-16 07:26N 33°46' W 118°14'0 0.0
2018-Jun-16 06:57N 33°46' W 118°14'0 0.0
2018-Jun-16 06:28N 33°46' W 118°14'0 0.0
2018-Jun-16 05:59N 33°46' W 118°14'0 0.0
2018-Jun-16 05:29N 33°46' W 118°14'0 0.0
2018-Jun-16 04:50N 33°46' W 118°14'0 0.0
2018-Jun-16 04:28N 33°46' W 118°14'0 0.1
2018-Jun-16 04:00N 33°46' W 118°14'1 2.5
2018-Jun-16 03:30N 33°45' W 118°13'4 7.9
2018-Jun-16 03:01N 33°42' W 118°11'4 7.6
2018-Jun-16 02:30N 33°38' W 118°10'3 5.7
2018-Jun-16 02:01N 33°36' W 118°13'4 8.6
2018-Jun-16 01:31N 33°36' W 118°18'4 8.3
2018-Jun-16 01:00N 33°37' W 118°23'4 8.6
2018-Jun-16 00:30N 33°39' W 118°27'5 8.3
2018-Jun-15 23:58N 33°41' W 118°32'4 8.2
2018-Jun-15 23:28N 33°43' W 118°36'4 7.8
2018-Jun-15 22:58N 33°45' W 118°40'6 8.2
2018-Jun-15 22:16N 33°48' W 118°46'2 8.4
2018-Jun-15 22:00N 33°49' W 118°48'4 8.2
2018-Jun-15 21:29N 33°51' W 118°53'4 7.8
2018-Jun-15 20:58N 33°53' W 118°57'4 8.0
2018-Jun-15 20:29N 33°55' W 119°01'4 8.1
2018-Jun-15 20:00N 33°57' W 119°05'4 7.7
2018-Jun-15 19:27N 33°59' W 119°10'3 7.5
2018-Jun-15 19:00N 34°01' W 119°13'4 8.4
2018-Jun-15 18:28N 34°03' W 119°18'3 6.1
2018-Jun-15 18:00N 34°00' W 119°18'7121.6 320 / 71010.7 5.4 20.714.418.0
2018-Jun-15 17:56N 34°04' W 119°24'4 9.4
2018-Jun-15 17:28N 34°06' W 119°29'4 9.2
2018-Jun-15 16:59N 34°07' W 119°34'5 9.3
2018-Jun-15 16:29N 34°08' W 119°40'6 9.5
2018-Jun-15 15:54N 34°09' W 119°46'4 9.2
2018-Jun-15 15:28N 34°10' W 119°51'5 9.2
2018-Jun-15 14:58N 34°12' W 119°56'5 9.8
2018-Jun-15 14:30N 34°13' W 120°01'5 9.3
2018-Jun-15 13:56N 34°14' W 120°08'4 9.5
2018-Jun-15 13:30N 34°15' W 120°12'5 9.7
2018-Jun-15 12:58N 34°17' W 120°19'510.0
2018-Jun-15 12:29N 34°18' W 120°24'510.5
2018-Jun-15 12:00N 34°19' W 120°30'4 8.1
2018-Jun-15 11:30N 34°20' W 120°35'5 9.3
2018-Jun-15 10:58N 34°22' W 120°41'4 9.6
2018-Jun-15 10:30N 34°23' W 120°46'5 9.5
2018-Jun-15 09:59N 34°24' W 120°52'5 9.4
2018-Jun-15 09:29N 34°28' W 120°55'5 9.5
2018-Jun-15 08:55N 34°33' W 120°59'6 9.5
2018-Jun-15 08:16N 34°38' W 121°03'3 9.7
2018-Jun-15 07:59N 34°40' W 121°05'5 9.4
2018-Jun-15 07:24N 34°45' W 121°08'4 9.5
2018-Jun-15 06:57N 34°48' W 121°11'7 9.8
2018-Jun-15 06:15N 34°54' W 121°16'311.0
2018-Jun-15 06:00N 34°54' W 121°12'5306.3 320 / 101011.4 5.4 14.111.312.0
2018-Jun-15 05:59N 34°56' W 121°17'5 9.5
2018-Jun-15 05:26N 35°01' W 121°21'4 9.1
2018-Jun-15 04:57N 35°04' W 121°24'4 9.3
2018-Jun-15 04:29N 35°08' W 121°26'5 9.7
2018-Jun-15 03:59N 35°12' W 121°30'5 9.6
2018-Jun-15 03:30N 35°16' W 121°33'5 9.7
2018-Jun-15 02:57N 35°20' W 121°36'5 9.5
2018-Jun-15 02:29N 35°24' W 121°39'5 9.6
2018-Jun-15 01:59N 35°28' W 121°42'7810.3
2018-Jun-14 18:23N 36°37' W 122°28'3 8.2
2018-Jun-14 18:00N 36°36' W 122°24'932.5 320 / 101012.910.8 13.610.612.0
2018-Jun-14 17:43N 36°43' W 122°31'210.0
2018-Jun-14 17:28N 36°45' W 122°32'510.4
2018-Jun-14 16:59N 36°50' W 122°34'5 9.9
2018-Jun-14 16:27N 36°55' W 122°36'4 9.7
2018-Jun-14 16:00N 36°59' W 122°38'5 9.5
2018-Jun-14 15:29N 37°04' W 122°40'4 9.0
2018-Jun-14 15:00N 37°08' W 122°42'4 8.8
2018-Jun-14 14:30N 37°12' W 122°43'4 8.5
2018-Jun-14 14:00N 37°16' W 122°43'4 8.7
2018-Jun-14 13:30N 37°21' W 122°44'4 8.6
2018-Jun-14 13:00N 37°25' W 122°44'4 8.6
2018-Jun-14 12:30N 37°30' W 122°44'4 8.6
2018-Jun-14 11:59N 37°34' W 122°43'4 8.8
2018-Jun-14 11:30N 37°38' W 122°43'4 8.7
2018-Jun-14 11:00N 37°42' W 122°41'4 8.2
2018-Jun-14 10:30N 37°46' W 122°39'815.9
2018-Jun-14 10:00N 37°49' W 122°30'612.3
2018-Jun-14 09:30N 37°48' W 122°22'3 5.0
2018-Jun-14 08:59N 37°48' W 122°19'0 0.0
2018-Jun-14 08:29N 37°48' W 122°19'0 0.0
2018-Jun-14 07:59N 37°48' W 122°19'0 0.0
2018-Jun-14 07:29N 37°48' W 122°19'0 0.0
2018-Jun-14 06:59N 37°48' W 122°19'0 0.0
2018-Jun-14 06:29N 37°48' W 122°19'0 0.0
2018-Jun-14 05:59N 37°48' W 122°19'0 0.0
2018-Jun-14 05:29N 37°48' W 122°19'0 0.0
2018-Jun-14 04:59N 37°48' W 122°19'0 0.0
2018-Jun-14 04:29N 37°48' W 122°19'0 0.0
2018-Jun-14 03:59N 37°48' W 122°19'0 0.0
2018-Jun-14 03:30N 37°48' W 122°19'0 0.0
2018-Jun-14 02:57N 37°48' W 122°19'0 0.0
2018-Jun-14 02:29N 37°48' W 122°19'0 0.0
2018-Jun-14 01:58N 37°48' W 122°19'0 0.0
2018-Jun-14 01:28N 37°48' W 122°19'0 0.0
2018-Jun-14 00:58N 37°48' W 122°19'0 0.0
2018-Jun-14 00:30N 37°48' W 122°19'0 0.0
2018-Jun-13 23:58N 37°48' W 122°19'0 0.0
2018-Jun-13 23:30N 37°48' W 122°19'0 0.0
2018-Jun-13 22:59N 37°48' W 122°19'0 0.0
2018-Jun-13 22:30N 37°48' W 122°19'0 0.0
2018-Jun-13 21:59N 37°48' W 122°19'0 0.0
2018-Jun-13 21:29N 37°48' W 122°19'0 0.0
2018-Jun-13 21:00N 37°48' W 122°19'0 0.0
2018-Jun-13 20:30N 37°48' W 122°19'0 0.0
2018-Jun-13 20:00N 37°48' W 122°19'0 0.0
2018-Jun-13 19:30N 37°48' W 122°19'0 0.0
2018-Jun-13 19:00N 37°48' W 122°19'0 0.0
2018-Jun-13 18:30N 37°48' W 122°19'0 0.0
2018-Jun-13 18:00N 37°48' W 122°19'0 0.0
2018-Jun-13 17:30N 37°48' W 122°19'0 0.0
2018-Jun-13 17:01N 37°48' W 122°19'0 0.0
2018-Jun-13 16:26N 37°48' W 122°19'0 0.0
2018-Jun-13 15:59N 37°48' W 122°19'0 0.0
2018-Jun-13 15:28N 37°48' W 122°19'0 0.0
2018-Jun-13 14:54N 37°48' W 122°19'0 0.0
2018-Jun-13 14:30N 37°48' W 122°19'0 0.0
2018-Jun-13 14:00N 37°48' W 122°19'0 0.0
2018-Jun-13 13:30N 37°48' W 122°19'0 0.0
2018-Jun-13 13:00N 37°48' W 122°19'0 0.0
2018-Jun-13 12:30N 37°48' W 122°19'0 0.0
2018-Jun-13 11:59N 37°48' W 122°19'0 0.0
2018-Jun-13 11:29N 37°48' W 122°19'0 0.0
2018-Jun-13 10:59N 37°48' W 122°19'0 0.0
2018-Jun-13 10:28N 37°48' W 122°19'0 0.0
2018-Jun-13 09:58N 37°48' W 122°19'0 0.0
2018-Jun-13 09:28N 37°48' W 122°19'0 0.0
2018-Jun-13 09:00N 37°48' W 122°19'0 0.0
2018-Jun-13 08:30N 37°48' W 122°19'0 0.0
2018-Jun-13 07:59N 37°48' W 122°19'0 0.0
2018-Jun-13 07:28N 37°48' W 122°19'0 0.0
2018-Jun-13 06:58N 37°48' W 122°19'0 0.0
2018-Jun-13 06:30N 37°48' W 122°19'0 0.0
2018-Jun-13 06:00N 37°48' W 122°19'0 0.0
2018-Jun-13 05:30N 37°48' W 122°19'0 0.0
2018-Jun-13 05:00N 37°48' W 122°19'0 0.0
2018-Jun-13 04:28N 37°48' W 122°19'0 0.0
2018-Jun-13 03:58N 37°48' W 122°19'0 0.0
2018-Jun-13 03:28N 37°48' W 122°19'0 0.0
2018-Jun-13 02:58N 37°48' W 122°19'0 0.0
2018-Jun-13 02:28N 37°48' W 122°19'0 0.0
2018-Jun-13 01:58N 37°48' W 122°19'0 0.0
2018-Jun-13 01:28N 37°48' W 122°19'0 0.0
2018-Jun-13 00:58N 37°48' W 122°19'0 0.0
2018-Jun-13 00:28N 37°48' W 122°19'0 0.0
2018-Jun-12 23:58N 37°48' W 122°19'0 0.0
2018-Jun-12 23:30N 37°48' W 122°19'0 0.0
2018-Jun-12 23:00N 37°48' W 122°19'0 0.0
2018-Jun-12 22:30N 37°48' W 122°19'1 2.3
2018-Jun-12 22:00N 37°48' W 122°18'1 1.1
2018-Jun-12 21:30N 37°48' W 122°18'3 6.4
2018-Jun-12 21:00N 37°48' W 122°23'611.6
2018-Jun-12 20:31N 37°49' W 122°30'815.3
2018-Jun-12 20:00N 37°46' W 122°39'5 9.8
2018-Jun-12 19:29N 37°46' W 122°45'5 9.4
2018-Jun-12 19:00N 37°48' W 122°51'5 9.2
2018-Jun-12 18:30N 37°50' W 122°55'5 9.0
2018-Jun-12 18:00N 37°53' W 123°00'5 9.2
2018-Jun-12 17:30N 37°55' W 123°05'5 9.0
2018-Jun-12 17:00N 37°57' W 123°10'5 9.1
2018-Jun-12 16:30N 38°01' W 123°14'4 9.0
2018-Jun-12 16:00N 38°04' W 123°18'4 9.1
2018-Jun-12 15:30N 38°08' W 123°22'5 9.4
2018-Jun-12 15:00N 38°12' W 123°24'510.2
2018-Jun-12 14:30N 38°16' W 123°27'510.6
2018-Jun-12 14:00N 38°21' W 123°30'510.3
2018-Jun-12 13:30N 38°26' W 123°33'510.6
2018-Jun-12 13:00N 38°30' W 123°36'510.2
2018-Jun-12 12:30N 38°35' W 123°39'1 1.4
2018-Jun-12 11:59N 38°35' W 123°40'4 7.3
2018-Jun-12 11:29N 38°39' W 123°42'5 9.5
2018-Jun-12 10:57N 38°43' W 123°45'6212.6
2018-Jun-12 06:00N 39°42' W 124°12'206 8.6 330 / 141016.710.8 13.111.012.0
2018-Jun-11 06:00N 43°06' W 124°54'12110.2 160 / 301015.8 5.4 13.210.914.0
2018-Jun-10 18:05N 45°07' W 125°04'331.4
2018-Jun-10 18:00N 45°06' W 125°00'619.1 160 / 121018.9 5.4 12.1 9.115.0
2018-Jun-10 17:41N 45°11' W 125°05'210.7
2018-Jun-10 17:30N 45°13' W 125°05'610.6
2018-Jun-10 16:57N 45°19' W 125°05'510.6
2018-Jun-10 16:31N 45°24' W 125°06'910.5
2018-Jun-10 15:40N 45°32' W 125°06'210.7
2018-Jun-10 15:30N 45°34' W 125°06'610.7
2018-Jun-10 14:59N 45°40' W 125°07'1110.9
2018-Jun-10 14:00N 45°50' W 125°08'510.9
2018-Jun-10 13:31N 45°56' W 125°08'510.8
2018-Jun-10 13:00N 46°01' W 125°09'510.6
2018-Jun-10 12:31N 46°06' W 125°09'510.4
2018-Jun-10 12:00N 46°12' W 125°10'510.8
2018-Jun-10 11:31N 46°17' W 125°10'510.8
2018-Jun-10 11:01N 46°22' W 125°10'510.9
2018-Jun-10 10:31N 46°28' W 125°11'611.1
2018-Jun-10 10:01N 46°33' W 125°11'611.2
2018-Jun-10 09:30N 46°39' W 125°12'511.3
2018-Jun-10 09:01N 46°45' W 125°12'611.4
2018-Jun-10 08:30N 46°50' W 125°13'611.5
2018-Jun-10 08:00N 46°56' W 125°13'2210.9
2018-Jun-10 06:00N 47°18' W 125°12'4311.9 240 / 121016.510.8 11.2 7.215.0
2018-Jun-10 02:21N 48°01' W 125°17'411.3
2018-Jun-10 01:58N 48°05' W 125°17'510.5
2018-Jun-10 01:30N 48°10' W 125°14'510.5
2018-Jun-10 01:00N 48°15' W 125°12'610.7
2018-Jun-10 00:29N 48°21' W 125°10'511.0
2018-Jun-10 00:00N 48°25' W 125°06'611.4
2018-Jun-09 23:30N 48°30' W 125°01'611.1
2018-Jun-09 23:00N 48°31' W 124°53'611.3
2018-Jun-09 22:30N 48°30' W 124°45'611.0
2018-Jun-09 22:00N 48°29' W 124°37'611.2
2018-Jun-09 21:30N 48°27' W 124°29'510.9
2018-Jun-09 21:00N 48°24' W 124°21'510.7
2018-Jun-09 20:30N 48°22' W 124°14'510.3
2018-Jun-09 20:00N 48°20' W 124°07'610.7
2018-Jun-09 19:27N 48°18' W 123°58'510.5
2018-Jun-09 19:00N 48°17' W 123°51'1410.3
2018-Jun-09 17:37N 48°17' W 123°30'410.3
2018-Jun-09 17:14N 48°21' W 123°27'3 9.8
2018-Jun-09 16:59N 48°22' W 123°25'611.7
2018-Jun-09 16:29N 48°23' W 123°16'816.9
2018-Jun-09 16:00N 48°31' W 123°13'  

Dump ship's entire track history